Time;durP1;ratioP1;P1;durP2;ratioP2;P2;SDS_P1;SDS_P2;PMS_P1;PMS_P2;Temp;Humidity;BMP_temperature;BMP_pressure;BME280_temperature;BME280_humidity;BME280_pressure;Samples;Min_cycle;Max_cycle;Signal;HPM_P1;HPM_P2
2023/08/05 00:01:18;;;;;;;5.67;4.20;;;25.50;55.90;;;;;;4966124;28;20433;-80
2023/08/05 00:03:46;;;;;;;5.33;4.40;;;25.50;55.90;;;;;;4965690;28;20465;-79
2023/08/05 00:06:14;;;;;;;8.17;5.10;;;25.50;56.00;;;;;;4965501;28;20526;-79
2023/08/05 00:08:45;;;;;;;5.13;4.57;;;25.40;56.00;;;;;;4954542;29;20433;-79
2023/08/05 00:11:13;;;;;;;5.90;5.03;;;25.40;56.00;;;;;;4964820;28;20426;-79
2023/08/05 00:13:42;;;;;;;4.30;3.83;;;25.40;56.10;;;;;;4959429;28;20443;-79
2023/08/05 00:16:11;;;;;;;4.80;4.40;;;25.40;56.00;;;;;;4958212;28;20475;-79
2023/08/05 00:18:39;;;;;;;8.67;4.03;;;25.40;56.20;;;;;;4956965;28;20796;-79
2023/08/05 00:21:08;;;;;;;4.50;4.10;;;25.30;56.20;;;;;;4959754;28;20447;-79
2023/08/05 00:23:35;;;;;;;4.40;4.00;;;25.40;56.20;;;;;;4970228;28;20455;-78
2023/08/05 00:26:04;;;;;;;5.90;4.00;;;25.30;56.20;;;;;;4969720;28;20471;-79
2023/08/05 00:28:32;;;;;;;4.20;3.73;;;25.30;56.30;;;;;;4969717;28;20451;-79
2023/08/05 00:31:01;;;;;;;4.40;3.80;;;25.20;56.30;;;;;;4970196;28;20526;-79
2023/08/05 00:33:30;;;;;;;5.93;4.40;;;25.20;56.40;;;;;;4969869;28;20469;-79
2023/08/05 00:35:58;;;;;;;5.67;4.10;;;25.20;56.40;;;;;;4970244;28;20451;-79
2023/08/05 00:38:26;;;;;;;4.30;3.90;;;25.20;56.40;;;;;;4959870;28;20448;-79
2023/08/05 00:40:54;;;;;;;4.10;3.60;;;25.20;56.50;;;;;;4970343;28;20470;-79
2023/08/05 00:43:22;;;;;;;4.07;3.77;;;25.10;56.50;;;;;;4969495;28;20451;-80
2023/08/05 00:45:50;;;;;;;4.20;3.73;;;25.10;57.20;;;;;;4969219;28;20608;-79
2023/08/05 00:48:20;;;;;;;4.33;4.03;;;25.10;56.60;;;;;;4969411;28;20449;-80
2023/08/05 00:50:48;;;;;;;4.50;4.10;;;25.10;56.60;;;;;;4969852;28;20418;-79
2023/08/05 00:53:16;;;;;;;4.20;3.90;;;25.00;56.70;;;;;;4968292;28;20778;-79
2023/08/05 00:55:46;;;;;;;3.93;3.53;;;25.00;56.60;;;;;;4971832;28;20512;-79
2023/08/05 00:58:14;;;;;;;4.23;3.77;;;25.00;56.70;;;;;;4973344;28;20424;-79
2023/08/05 01:00:41;;;;;;;3.93;3.47;;;25.00;56.80;;;;;;4973677;28;20427;-79
2023/08/05 01:03:09;;;;;;;4.70;3.90;;;25.00;56.80;;;;;;4973283;28;20431;-79
2023/08/05 01:05:38;;;;;;;4.17;3.83;;;25.00;56.80;;;;;;4973689;28;20457;-79
2023/08/05 01:08:07;;;;;;;11.87;9.20;;;24.90;56.80;;;;;;4973198;28;20481;-79
2023/08/05 01:10:35;;;;;;;9.20;8.03;;;24.90;56.90;;;;;;4973232;28;20429;-79
2023/08/05 01:13:03;;;;;;;16.63;11.87;;;24.90;56.90;;;;;;4969225;29;20418;-79
2023/08/05 01:15:31;;;;;;;16.63;12.50;;;24.90;57.00;;;;;;4973021;28;20455;-79
2023/08/05 01:18:00;;;;;;;19.63;13.23;;;24.90;56.90;;;;;;4973923;28;20437;-79
2023/08/05 01:20:34;;;;;;;17.60;12.17;;;24.80;57.00;;;;;;4973299;28;20451;-79
2023/08/05 01:23:07;;;;;;;18.07;13.90;;;24.80;56.90;;;;;;4973261;28;20439;-79
2023/08/05 01:25:37;;;;;;;20.50;15.13;;;24.80;56.90;;;;;;4968192;29;20433;-78
2023/08/05 01:28:05;;;;;;;20.13;15.63;;;24.80;57.10;;;;;;4972819;28;20551;-79
2023/08/05 01:30:33;;;;;;;21.97;15.43;;;24.80;57.00;;;;;;4974737;28;20414;-78
2023/08/05 01:33:01;;;;;;;19.20;13.60;;;24.80;57.10;;;;;;4975535;28;20439;-79
2023/08/05 01:35:29;;;;;;;20.30;14.80;;;24.70;57.10;;;;;;4974936;28;20457;-78
2023/08/05 01:37:57;;;;;;;22.27;15.00;;;24.70;57.10;;;;;;4974109;28;20430;-79
2023/08/05 01:40:28;;;;;;;25.23;16.07;;;24.70;57.20;;;;;;4973305;28;20413;-79
2023/08/05 01:42:58;;;;;;;23.90;15.90;;;24.70;57.20;;;;;;4972068;28;20452;-79
2023/08/05 01:45:26;;;;;;;20.30;14.23;;;24.70;57.20;;;;;;4972833;28;20453;-79
2023/08/05 01:47:54;;;;;;;19.47;15.17;;;24.60;57.30;;;;;;4973015;28;20467;-79
2023/08/05 01:50:23;;;;;;;18.63;14.33;;;24.60;57.20;;;;;;4970876;28;20413;-79
2023/08/05 01:52:51;;;;;;;17.70;13.90;;;24.60;57.40;;;;;;4966259;29;20503;-79
2023/08/05 01:55:20;;;;;;;20.10;14.70;;;24.60;57.40;;;;;;4971735;28;20441;-79
2023/08/05 01:57:47;;;;;;;19.27;15.13;;;24.60;57.40;;;;;;4968023;28;20502;-79
2023/08/05 02:00:20;;;;;;;21.53;16.17;;;24.60;57.30;;;;;;4966873;29;20466;-79
2023/08/05 02:02:48;;;;;;;21.80;15.53;;;24.60;57.30;;;;;;4972204;28;20425;-79
2023/08/05 02:05:17;;;;;;;22.40;15.87;;;24.60;57.30;;;;;;4972193;28;20510;-79
2023/08/05 02:07:45;;;;;;;19.10;15.30;;;24.60;57.30;;;;;;4964579;28;20435;-79
2023/08/05 02:10:13;;;;;;;18.70;14.40;;;24.60;57.40;;;;;;4972096;28;20470;-79
2023/08/05 02:12:41;;;;;;;21.87;15.27;;;24.60;57.50;;;;;;4972449;28;20438;-79
2023/08/05 02:15:10;;;;;;;16.30;13.40;;;24.50;57.20;;;;;;4971502;28;20471;-79
2023/08/05 02:17:39;;;;;;;17.97;13.90;;;24.50;57.40;;;;;;4970431;28;20840;-79
2023/08/05 02:20:09;;;;;;;17.77;14.07;;;24.50;57.40;;;;;;4971335;28;20451;-79
2023/08/05 02:22:37;;;;;;;19.43;13.90;;;24.50;57.50;;;;;;4963612;28;20455;-79
2023/08/05 02:25:06;;;;;;;17.90;14.13;;;24.40;57.50;;;;;;4963432;28;20471;-79
2023/08/05 02:27:35;;;;;;;19.40;13.93;;;24.50;57.60;;;;;;4970367;28;20454;-79
2023/08/05 02:30:03;;;;;;;18.43;14.40;;;24.40;57.50;;;;;;4963983;28;20448;-79
2023/08/05 02:32:31;;;;;;;16.20;12.50;;;24.40;57.60;;;;;;4971177;28;20418;-79
2023/08/05 02:35:01;;;;;;;16.60;13.10;;;24.40;57.60;;;;;;4971220;28;20430;-79
2023/08/05 02:37:29;;;;;;;18.30;13.70;;;24.50;57.60;;;;;;4967546;28;20433;-79
2023/08/05 02:39:57;;;;;;;15.53;12.40;;;24.40;57.60;;;;;;4970897;28;20451;-78
2023/08/05 02:42:25;;;;;;;19.00;13.80;;;24.40;57.70;;;;;;4971240;28;20443;-79
2023/08/05 02:44:53;;;;;;;16.93;13.17;;;24.40;57.50;;;;;;4964717;28;20459;-78
2023/08/05 02:47:21;;;;;;;16.97;11.83;;;24.40;57.70;;;;;;4962679;28;20464;-79
2023/08/05 02:49:49;;;;;;;16.07;11.93;;;24.40;57.50;;;;;;4970291;28;20422;-79
2023/08/05 02:52:19;;;;;;;15.63;12.30;;;24.40;57.70;;;;;;4954983;28;20538;-79
2023/08/05 02:54:47;;;;;;;15.03;11.37;;;24.40;57.60;;;;;;4964322;28;20485;-79
2023/08/05 02:57:14;;;;;;;16.00;12.00;;;24.40;57.70;;;;;;4971103;28;20478;-79
2023/08/05 02:59:42;;;;;;;18.40;12.30;;;24.30;58.30;;;;;;4962842;28;20417;-79
2023/08/05 03:02:10;;;;;;;14.80;10.63;;;24.30;57.80;;;;;;4970254;28;20446;-79
2023/08/05 03:04:38;;;;;;;16.33;11.47;;;24.30;57.80;;;;;;4962277;28;20450;-79
2023/08/05 03:07:06;;;;;;;14.87;11.73;;;24.30;57.70;;;;;;4970124;28;20572;-79
2023/08/05 03:09:35;;;;;;;14.40;11.77;;;24.30;57.90;;;;;;4967045;28;20476;-80
2023/08/05 03:12:07;;;;;;;14.50;11.90;;;24.30;57.80;;;;;;4969710;28;20434;-79
2023/08/05 03:14:34;;;;;;;17.40;11.30;;;24.30;58.00;;;;;;4969539;28;20470;-79
2023/08/05 03:17:03;;;;;;;14.60;10.70;;;24.30;57.90;;;;;;4969354;28;20446;-79
2023/08/05 03:19:31;;;;;;;12.33;9.93;;;24.20;57.80;;;;;;4968891;28;20461;-79
2023/08/05 03:21:59;;;;;;;13.17;10.27;;;24.20;57.80;;;;;;4969732;28;20426;-79
2023/08/05 03:24:27;;;;;;;13.10;10.30;;;24.20;57.80;;;;;;4967695;28;20463;-78
2023/08/05 03:26:56;;;;;;;11.63;10.17;;;24.20;58.00;;;;;;4961841;28;20479;-78
2023/08/05 03:29:24;;;;;;;13.57;10.33;;;24.20;57.90;;;;;;4967598;28;20458;-79
2023/08/05 03:31:52;;;;;;;13.27;10.53;;;24.20;58.00;;;;;;4970291;28;20429;-79
2023/08/05 03:34:20;;;;;;;12.27;10.20;;;24.10;57.90;;;;;;4970348;28;20451;-79
2023/08/05 03:36:48;;;;;;;12.40;9.47;;;24.10;58.00;;;;;;4969780;28;20409;-79
2023/08/05 03:39:17;;;;;;;12.80;9.70;;;24.10;58.00;;;;;;4970186;28;20441;-79
2023/08/05 03:41:45;;;;;;;13.87;10.20;;;24.20;58.10;;;;;;4970276;28;20438;-78
2023/08/05 03:44:15;;;;;;;10.73;8.60;;;24.20;57.90;;;;;;4968097;28;20434;-79
2023/08/05 03:46:45;;;;;;;10.33;8.63;;;24.10;58.60;;;;;;4968588;29;20472;-79
2023/08/05 03:49:12;;;;;;;16.50;10.00;;;24.10;57.80;;;;;;4970552;28;20410;-79
2023/08/05 03:51:41;;;;;;;11.40;8.90;;;24.10;58.00;;;;;;4970634;28;20409;-79
2023/08/05 03:54:08;;;;;;;10.70;9.00;;;24.10;58.00;;;;;;4970254;28;20458;-79
2023/08/05 03:56:36;;;;;;;11.03;8.50;;;24.10;58.00;;;;;;4970369;28;20482;-80
2023/08/05 03:59:04;;;;;;;10.03;8.43;;;24.10;57.90;;;;;;4969947;28;20448;-79
2023/08/05 04:01:34;;;;;;;10.10;8.30;;;24.10;58.00;;;;;;4969136;28;20493;-79
2023/08/05 04:04:02;;;;;;;11.70;9.10;;;24.10;57.90;;;;;;4970516;28;20413;-79
2023/08/05 04:06:30;;;;;;;10.70;8.20;;;24.10;58.10;;;;;;4965255;28;20545;-79
2023/08/05 04:08:58;;;;;;;8.83;7.93;;;24.10;58.00;;;;;;4971012;28;20447;-79
2023/08/05 04:11:27;;;;;;;11.20;9.30;;;24.10;58.00;;;;;;4970415;28;20425;-79
2023/08/05 04:13:58;;;;;;;9.93;8.73;;;24.10;57.90;;;;;;4970302;28;20446;-79
2023/08/05 04:16:28;;;;;;;10.53;8.50;;;24.10;58.00;;;;;;4968889;28;20414;-79
2023/08/05 04:18:58;;;;;;;10.53;8.50;;;24.10;58.00;;;;;;4968066;28;20436;-79
2023/08/05 04:21:32;;;;;;;8.60;7.40;;;24.20;58.10;;;;;;4970191;28;20450;-79
2023/08/05 04:24:01;;;;;;;9.50;8.13;;;24.20;58.00;;;;;;4970123;28;20425;-79
2023/08/05 04:26:35;;;;;;;9.27;8.00;;;24.20;58.00;;;;;;4970623;28;20454;-79
2023/08/05 04:29:03;;;;;;;8.30;7.43;;;24.20;57.90;;;;;;4971773;28;20443;-79
2023/08/05 04:31:32;;;;;;;8.60;7.07;;;24.20;58.10;;;;;;4974612;28;20462;-79
2023/08/05 04:34:02;;;;;;;8.70;7.57;;;24.20;58.10;;;;;;4975188;28;20446;-79
2023/08/05 04:36:30;;;;;;;7.87;7.03;;;24.20;58.10;;;;;;4973080;28;20429;-79
2023/08/05 04:39:01;;;;;;;7.50;6.60;;;24.20;57.90;;;;;;4973875;28;20426;-79
2023/08/05 04:41:30;;;;;;;7.50;6.60;;;24.20;58.00;;;;;;4974094;28;20430;-79
2023/08/05 04:43:58;;;;;;;8.73;6.90;;;24.20;57.90;;;;;;4973934;29;20409;-81
2023/08/05 04:46:26;;;;;;;9.30;6.70;;;24.20;58.00;;;;;;4973109;28;20944;-79
2023/08/05 04:48:55;;;;;;;7.97;7.17;;;24.30;58.00;;;;;;4966187;29;20510;-79
2023/08/05 04:51:24;;;;;;;7.47;6.67;;;24.30;58.00;;;;;;4974011;28;20459;-79
2023/08/05 04:53:52;;;;;;;7.60;6.80;;;24.30;58.10;;;;;;4971015;28;20429;-79
2023/08/05 04:56:24;;;;;;;8.80;7.20;;;24.30;58.00;;;;;;4973830;28;20486;-79
2023/08/05 04:58:51;;;;;;;10.03;6.70;;;24.30;58.00;;;;;;4973679;28;20478;-79
2023/08/05 05:01:20;;;;;;;7.00;6.20;;;24.30;58.00;;;;;;4972668;28;20472;-80
2023/08/05 05:03:49;;;;;;;6.90;6.20;;;24.30;57.90;;;;;;4975948;28;20439;-79
2023/08/05 05:06:17;;;;;;;6.73;6.00;;;24.30;57.90;;;;;;4972212;28;20446;-76
2023/08/05 05:08:47;;;;;;;7.20;6.40;;;24.40;58.00;;;;;;4973397;28;20426;-79
2023/08/05 05:11:15;;;;;;;7.70;6.33;;;24.40;57.90;;;;;;4973874;28;20445;-79
2023/08/05 05:13:46;;;;;;;6.97;6.20;;;24.40;57.90;;;;;;4967298;28;20469;-79
2023/08/05 05:16:14;;;;;;;8.13;6.50;;;24.40;57.90;;;;;;4973406;28;20497;-79
2023/08/05 05:18:42;;;;;;;6.60;6.00;;;24.40;57.80;;;;;;4972836;28;20478;-79
2023/08/05 05:21:11;;;;;;;6.20;5.60;;;24.40;57.90;;;;;;4973190;28;20503;-80
2023/08/05 05:23:39;;;;;;;7.10;6.27;;;24.50;57.80;;;;;;4972995;28;20428;-79
2023/08/05 05:26:09;;;;;;;7.00;5.90;;;24.50;57.60;;;;;;4961445;28;20869;-79
2023/08/05 05:28:37;;;;;;;6.67;6.00;;;24.50;57.70;;;;;;4968659;29;20447;-79
2023/08/05 05:31:05;;;;;;;6.40;5.80;;;24.60;57.50;;;;;;4969408;28;20437;-79
2023/08/05 05:33:33;;;;;;;6.13;4.90;;;24.60;57.80;;;;;;4972702;28;20437;-79
2023/08/05 05:36:01;;;;;;;6.00;5.10;;;24.60;57.50;;;;;;4967429;28;20463;-78
2023/08/05 05:38:29;;;;;;;6.93;5.63;;;24.60;57.60;;;;;;4967889;28;20409;-79
2023/08/05 05:40:57;;;;;;;7.60;5.60;;;24.60;57.60;;;;;;4965938;28;20431;-78
2023/08/05 05:43:26;;;;;;;5.67;5.13;;;24.60;57.40;;;;;;4965735;28;20446;-79
2023/08/05 05:45:55;;;;;;;6.30;5.23;;;24.60;57.50;;;;;;4970470;28;20433;-79
2023/08/05 05:48:23;;;;;;;5.90;5.30;;;24.60;57.60;;;;;;4963947;28;20492;-78
2023/08/05 05:50:52;;;;;;;5.13;4.60;;;24.60;57.50;;;;;;4962689;28;20405;-78
2023/08/05 05:53:21;;;;;;;5.30;4.83;;;24.60;57.40;;;;;;4971841;28;20425;-79
2023/08/05 05:55:52;;;;;;;5.57;5.00;;;24.60;57.50;;;;;;4971694;28;20467;-79
2023/08/05 05:58:21;;;;;;;6.30;4.87;;;24.60;57.40;;;;;;4971946;29;20439;-79
2023/08/05 06:00:54;;;;;;;5.83;5.17;;;24.50;57.40;;;;;;4976683;28;20446;-79
2023/08/05 06:03:22;;;;;;;5.30;4.80;;;24.60;57.60;;;;;;4978427;28;20425;-79
2023/08/05 06:05:51;;;;;;;4.90;4.50;;;24.60;57.50;;;;;;4974917;28;20526;-78
2023/08/05 06:08:18;;;;;;;7.10;4.90;;;24.60;57.50;;;;;;4969630;28;20573;-79
2023/08/05 06:10:46;;;;;;;5.47;4.97;;;24.60;57.30;;;;;;4971146;28;20439;-79
2023/08/05 06:13:14;;;;;;;4.70;4.30;;;24.60;57.40;;;;;;4971471;28;20439;-79
2023/08/05 06:15:42;;;;;;;5.23;4.73;;;24.60;57.50;;;;;;4973752;28;20461;-78
2023/08/05 06:18:11;;;;;;;4.83;4.37;;;24.60;57.30;;;;;;4972342;28;20414;-79
2023/08/05 06:20:39;;;;;;;4.60;4.17;;;24.60;57.00;;;;;;4974770;28;20421;-79
2023/08/05 06:23:07;;;;;;;4.80;4.30;;;24.60;57.40;;;;;;4978228;28;20450;-79
2023/08/05 06:25:35;;;;;;;4.70;4.30;;;24.70;57.20;;;;;;4975107;28;20437;-79
2023/08/05 06:28:04;;;;;;;5.37;4.87;;;24.60;57.20;;;;;;4970208;28;20445;-79
2023/08/05 06:30:32;;;;;;;6.00;4.50;;;24.70;57.20;;;;;;4969020;28;20455;-79
2023/08/05 06:33:00;;;;;;;5.07;4.67;;;24.70;57.30;;;;;;4971254;28;20455;-79
2023/08/05 06:35:29;;;;;;;4.43;4.13;;;24.80;57.30;;;;;;4971526;28;20992;-80
2023/08/05 06:37:57;;;;;;;4.80;4.40;;;24.80;57.10;;;;;;4971447;28;20426;-80
2023/08/05 06:40:25;;;;;;;4.57;4.17;;;24.80;57.20;;;;;;4968834;28;20446;-79
2023/08/05 06:42:54;;;;;;;5.10;4.70;;;24.90;57.00;;;;;;4968691;28;20489;-80
2023/08/05 06:45:22;;;;;;;5.40;4.90;;;25.00;57.10;;;;;;4969563;28;20446;-78
2023/08/05 06:47:51;;;;;;;5.87;4.10;;;25.00;56.90;;;;;;4967661;28;20446;-80
2023/08/05 06:50:19;;;;;;;3.90;3.60;;;25.00;56.80;;;;;;4970675;28;20447;-79
2023/08/05 06:52:48;;;;;;;4.50;4.10;;;25.10;56.80;;;;;;4969915;28;20429;-79
2023/08/05 06:55:17;;;;;;;5.00;4.60;;;25.10;56.80;;;;;;4969414;28;20486;-79
2023/08/05 06:57:48;;;;;;;5.50;4.40;;;25.20;56.80;;;;;;4970321;28;20427;-79
2023/08/05 07:00:16;;;;;;;4.50;4.20;;;25.30;56.70;;;;;;4970917;28;20426;-79
2023/08/05 07:02:44;;;;;;;4.23;3.83;;;25.40;56.70;;;;;;4970763;28;20426;-79
2023/08/05 07:05:12;;;;;;;4.40;4.00;;;25.50;56.70;;;;;;4969077;28;20501;-79
2023/08/05 07:07:41;;;;;;;4.70;4.30;;;25.50;56.70;;;;;;4971168;28;20466;-79
2023/08/05 07:10:12;;;;;;;4.57;4.20;;;25.60;56.60;;;;;;4963126;29;20402;-79
2023/08/05 07:12:41;;;;;;;4.53;4.13;;;25.70;56.50;;;;;;4971427;28;20418;-79
2023/08/05 07:15:09;;;;;;;4.97;4.17;;;25.70;56.70;;;;;;4960033;29;20550;-80
2023/08/05 07:17:38;;;;;;;4.60;4.20;;;25.80;56.80;;;;;;4969478;28;20409;-79
2023/08/05 07:20:08;;;;;;;4.57;4.10;;;25.90;56.60;;;;;;4967432;28;20409;-79
2023/08/05 07:22:36;;;;;;;4.60;4.20;;;26.00;56.60;;;;;;4969802;28;20455;-79
2023/08/05 07:25:05;;;;;;;5.40;4.57;;;26.10;56.60;;;;;;4968325;28;20470;-79
2023/08/05 07:27:35;;;;;;;3.90;3.60;;;26.20;56.50;;;;;;4969328;28;20542;-79
2023/08/05 07:30:03;;;;;;;6.10;4.40;;;26.30;56.50;;;;;;4969088;28;20467;-79
2023/08/05 07:32:31;;;;;;;4.10;3.80;;;26.50;56.10;;;;;;4970470;28;20402;-79
2023/08/05 07:34:59;;;;;;;3.77;3.57;;;26.60;56.00;;;;;;4971820;28;20474;-80
2023/08/05 07:37:29;;;;;;;3.97;3.67;;;26.70;55.90;;;;;;4972054;28;20414;-79
2023/08/05 07:39:57;;;;;;;3.70;3.40;;;26.80;55.50;;;;;;4970949;28;20463;-78
2023/08/05 07:42:27;;;;;;;4.10;3.77;;;26.90;55.50;;;;;;4967346;28;20451;-78
2023/08/05 07:44:57;;;;;;;3.80;3.60;;;27.00;55.20;;;;;;4968391;28;20459;-79
2023/08/05 07:47:24;;;;;;;3.97;3.67;;;27.00;55.20;;;;;;4969620;28;20416;-79
2023/08/05 07:49:52;;;;;;;3.40;3.20;;;27.00;55.10;;;;;;4969524;28;20435;-79
2023/08/05 07:52:20;;;;;;;5.10;3.50;;;27.10;55.10;;;;;;4969759;28;20506;-79
2023/08/05 07:54:48;;;;;;;3.83;3.50;;;27.10;54.80;;;;;;4967862;28;20466;-79
2023/08/05 07:57:16;;;;;;;3.10;3.00;;;27.20;55.00;;;;;;4968278;28;20447;-79
2023/08/05 07:59:44;;;;;;;3.73;3.13;;;27.20;54.90;;;;;;4968528;28;20427;-79
2023/08/05 08:02:14;;;;;;;3.17;2.97;;;27.20;54.70;;;;;;4968791;28;20443;-79
2023/08/05 08:04:43;;;;;;;3.20;2.90;;;27.30;54.70;;;;;;4969716;28;20466;-79
2023/08/05 08:07:11;;;;;;;3.17;2.97;;;27.30;54.60;;;;;;4968353;28;20427;-78
2023/08/05 08:09:40;;;;;;;2.90;2.70;;;27.40;54.60;;;;;;4967238;28;20531;-78
2023/08/05 08:12:08;;;;;;;3.00;2.80;;;27.40;54.70;;;;;;4963896;28;20553;-79
2023/08/05 08:14:37;;;;;;;3.33;3.13;;;27.60;54.70;;;;;;4965728;28;20525;-79
2023/08/05 08:17:07;;;;;;;2.27;2.17;;;27.70;54.40;;;;;;4958468;28;20512;-80
2023/08/05 08:19:37;;;;;;;10.87;3.23;;;27.70;55.40;;;;;;4955086;28;20450;-78
2023/08/05 08:25:28;;;;;;;4.97;2.87;;;26.40;50.40;;;;;;4942412;29;20562;-78
2023/08/05 08:28:10;;;;;;;2.80;2.67;;;25.40;50.80;;;;;;4949069;28;20520;-78
2023/08/05 08:34:41;;;;;;;2.40;2.20;;;25.30;48.30;;;;;;4961046;22;20435;-77
2023/08/05 08:37:21;;;;;;;2.80;2.10;;;24.30;50.60;;;;;;5003142;28;20412;-77
2023/08/05 08:40:26;;;;;;;2.30;2.10;;;24.40;49.50;;;;;;5009100;28;20417;-77
2023/08/05 08:43:13;;;;;;;10.53;2.20;;;24.20;50.40;;;;;;5007107;28;20494;-77
2023/08/05 08:46:01;;;;;;;2.37;2.17;;;24.10;50.70;;;;;;4992013;28;20517;-78
2023/08/05 08:51:23;;;;;;;3.37;1.80;;;24.50;49.50;;;;;;4986025;28;20420;-78
2023/08/05 08:54:07;;;;;;;5.43;2.20;;;23.50;49.30;;;;;;4988015;28;20438;-78
2023/08/05 08:56:36;;;;;;;1.70;1.60;;;23.80;50.60;;;;;;4989085;28;20456;-80
2023/08/05 08:59:07;;;;;;;2.60;2.33;;;23.40;51.20;;;;;;4992331;28;20449;-78
2023/08/05 09:01:39;;;;;;;3.23;2.30;;;23.60;52.20;;;;;;4989244;28;20447;-77
2023/08/05 09:04:08;;;;;;;6.40;3.80;;;23.90;51.10;;;;;;4983222;28;20449;-77
2023/08/05 09:06:37;;;;;;;2.80;2.53;;;23.70;51.50;;;;;;4992134;28;20499;-78
2023/08/05 09:09:27;;;;;;;4.27;2.20;;;23.00;50.00;;;;;;4982713;28;20474;-76
2023/08/05 09:11:58;;;;;;;2.27;2.07;;;22.00;50.70;;;;;;4988415;28;20454;-79
2023/08/05 09:14:26;;;;;;;2.10;2.00;;;22.30;49.70;;;;;;4991285;28;20469;-77
2023/08/05 09:16:59;;;;;;;2.20;2.00;;;22.60;50.90;;;;;;4991530;28;20428;-77
2023/08/05 09:19:31;;;;;;;7.60;2.13;;;22.80;50.50;;;;;;4994025;28;20416;-77
2023/08/05 09:22:01;;;;;;;2.30;2.10;;;22.90;51.80;;;;;;4993256;28;20445;-77
2023/08/05 09:24:31;;;;;;;2.57;2.37;;;23.40;52.00;;;;;;4994683;28;20469;-77
2023/08/05 09:27:00;;;;;;;2.20;2.00;;;23.00;50.20;;;;;;4994308;28;20449;-77
2023/08/05 09:29:29;;;;;;;4.30;1.90;;;22.60;51.40;;;;;;4994187;28;20500;-77
2023/08/05 09:31:57;;;;;;;2.50;2.30;;;22.60;51.30;;;;;;4994617;28;20449;-77
2023/08/05 09:34:34;;;;;;;2.73;2.13;;;22.10;51.80;;;;;;4986097;28;20496;-77
2023/08/05 09:37:02;;;;;;;4.70;2.07;;;22.10;53.80;;;;;;4993392;28;20464;-77
2023/08/05 09:39:46;;;;;;;3.53;2.57;;;21.90;52.70;;;;;;4989891;28;20489;-77
2023/08/05 09:42:23;;;;;;;3.90;2.30;;;22.10;52.70;;;;;;4994183;28;20424;-77
2023/08/05 09:44:52;;;;;;;5.23;3.40;;;21.80;53.70;;;;;;4994488;28;20461;-78
2023/08/05 09:47:23;;;;;;;8.37;2.30;;;22.00;53.60;;;;;;4995186;28;20423;-77
2023/08/05 09:49:52;;;;;;;4.13;2.13;;;22.10;52.60;;;;;;4995020;28;20472;-79
2023/08/05 09:52:23;;;;;;;4.70;2.43;;;23.40;54.30;;;;;;4995135;28;20424;-76
2023/08/05 09:54:55;;;;;;;3.33;2.53;;;24.60;52.10;;;;;;4993408;28;20454;-76
2023/08/05 09:57:23;;;;;;;7.00;2.43;;;25.70;50.70;;;;;;4992854;28;20423;-76
2023/08/05 09:59:54;;;;;;;4.27;3.10;;;26.60;49.40;;;;;;4986986;28;20404;-77
2023/08/05 10:02:25;;;;;;;6.10;3.03;;;27.30;48.10;;;;;;4991369;28;20408;-79
2023/08/05 10:04:56;;;;;;;6.00;2.57;;;27.90;47.10;;;;;;4995968;28;20556;-79
2023/08/05 10:07:25;;;;;;;8.20;2.50;;;28.40;46.20;;;;;;4998977;28;20544;-75
2023/08/05 10:09:55;;;;;;;5.13;2.30;;;28.80;45.70;;;;;;4992803;28;20475;-76
2023/08/05 10:12:25;;;;;;;4.97;2.23;;;29.20;45.10;;;;;;4993812;28;20460;-75
2023/08/05 10:14:59;;;;;;;7.90;2.47;;;29.50;44.80;;;;;;4993941;28;20469;-76
2023/08/05 10:17:29;;;;;;;5.60;2.43;;;29.70;44.40;;;;;;4994474;28;20455;-79
2023/08/05 10:19:58;;;;;;;13.60;3.30;;;30.00;44.10;;;;;;4996097;28;20863;-78
2023/08/05 10:22:26;;;;;;;11.47;3.27;;;30.20;44.20;;;;;;4995788;28;20446;-78
2023/08/05 10:24:57;;;;;;;8.67;3.50;;;30.40;44.10;;;;;;4994816;28;20477;-80
2023/08/05 10:27:38;;;;;;;15.90;4.30;;;30.60;44.10;;;;;;4993147;28;20932;-78
2023/08/05 10:30:12;;;;;;;6.80;4.03;;;30.80;43.80;;;;;;4991980;28;20477;-78
2023/08/05 10:32:50;;;;;;;9.63;4.20;;;30.90;43.80;;;;;;4995979;28;20506;-81
2023/08/05 10:35:28;;;;;;;8.07;4.17;;;31.10;44.00;;;;;;4995286;28;20567;-81
2023/08/05 10:38:13;;;;;;;12.30;3.90;;;31.40;43.90;;;;;;4996366;28;20472;-80
2023/08/05 10:41:00;;;;;;;8.13;4.00;;;31.50;43.50;;;;;;4996923;28;20868;-81
2023/08/05 10:43:38;;;;;;;11.10;4.30;;;31.50;43.60;;;;;;4990162;28;20437;-81
2023/08/05 10:46:17;;;;;;;8.00;3.70;;;31.50;43.40;;;;;;5002732;28;20482;-81
2023/08/05 10:48:46;;;;;;;8.90;3.73;;;31.50;43.70;;;;;;5006251;28;20461;-79
2023/08/05 10:51:18;;;;;;;5.90;3.40;;;31.50;43.90;;;;;;4997865;28;20897;-83
2023/08/05 10:53:59;;;;;;;7.87;3.70;;;31.50;44.10;;;;;;4989852;28;20453;-80
2023/08/05 10:56:31;;;;;;;5.33;3.60;;;31.70;44.10;;;;;;4988316;28;20423;-79
2023/08/05 10:59:05;;;;;;;7.73;3.40;;;31.90;44.00;;;;;;4997048;28;20472;-79
2023/08/05 11:02:05;;;;;;;7.90;3.90;;;32.00;43.70;;;;;;4989654;28;20445;-79
2023/08/05 11:04:36;;;;;;;11.77;3.43;;;32.20;43.50;;;;;;4983346;28;20493;-80
2023/08/05 11:07:06;;;;;;;8.63;3.50;;;32.20;43.40;;;;;;4993638;28;20453;-78
2023/08/05 11:09:34;;;;;;;10.40;3.97;;;32.40;43.60;;;;;;4994478;28;20473;-78
2023/08/05 11:12:05;;;;;;;9.60;3.17;;;32.70;43.40;;;;;;4995840;28;20469;-80
2023/08/05 11:14:33;;;;;;;7.20;2.90;;;32.90;42.80;;;;;;4995940;28;20501;-80
2023/08/05 11:17:05;;;;;;;7.30;3.13;;;33.00;42.30;;;;;;4992371;28;20457;-76
2023/08/05 11:19:51;;;;;;;4.87;3.17;;;33.00;42.40;;;;;;4988183;28;20449;-77
2023/08/05 11:22:35;;;;;;;11.33;3.00;;;32.80;42.20;;;;;;4993924;28;20448;-81
2023/08/05 11:25:15;;;;;;;7.80;4.10;;;32.50;42.50;;;;;;4996345;28;20473;-81
2023/08/05 11:27:52;;;;;;;7.47;4.90;;;32.20;43.30;;;;;;4995442;28;20484;-81
2023/08/05 11:30:22;;;;;;;11.43;7.27;;;32.00;43.80;;;;;;4993558;28;20483;-79
2023/08/05 11:32:55;;;;;;;11.00;8.20;;;32.10;44.30;;;;;;4997823;28;20462;-80
2023/08/05 11:35:27;;;;;;;10.60;8.87;;;32.50;43.80;;;;;;4994502;28;20511;-79
2023/08/05 11:38:11;;;;;;;13.13;7.97;;;32.50;43.60;;;;;;4994097;28;20448;-80
2023/08/05 11:41:03;;;;;;;12.03;9.30;;;32.70;43.60;;;;;;4997168;28;20499;-82
2023/08/05 11:43:41;;;;;;;16.40;9.73;;;33.00;43.40;;;;;;4996647;28;20463;-81
2023/08/05 11:46:24;;;;;;;5.27;4.13;;;32.90;42.80;;;;;;4997701;28;20469;-79
2023/08/05 11:49:08;;;;;;;3.90;3.13;;;31.60;38.20;;;;;;4993918;28;20451;-78
2023/08/05 11:51:55;;;;;;;11.03;4.07;;;30.30;38.80;;;;;;4993094;28;20481;-79
2023/08/05 11:54:26;;;;;;;5.33;3.77;;;29.70;42.00;;;;;;4992671;28;20520;-74
2023/08/05 11:56:54;;;;;;;3.50;3.13;;;28.80;42.50;;;;;;4992296;28;20449;-77
2023/08/05 11:59:51;;;;;;;5.03;2.80;;;28.60;44.20;;;;;;4991565;28;20494;-78
2023/08/05 12:02:30;;;;;;;4.23;3.13;;;29.80;43.40;;;;;;4990219;28;20495;-78
2023/08/05 12:05:12;;;;;;;2.73;2.23;;;30.20;40.30;;;;;;4983120;28;20553;-77
2023/08/05 12:07:41;;;;;;;2.17;2.07;;;31.10;38.20;;;;;;4985866;28;20441;-77
2023/08/05 12:10:14;;;;;;;2.50;2.30;;;30.70;38.00;;;;;;4991780;28;20556;-78
2023/08/05 12:12:43;;;;;;;5.50;2.97;;;30.40;38.10;;;;;;4992394;28;20468;-82
2023/08/05 12:15:14;;;;;;;2.63;2.53;;;30.80;41.70;;;;;;5004282;28;20464;-81
2023/08/05 12:17:46;;;;;;;3.57;2.40;;;31.70;39.80;;;;;;5004962;28;20441;-81
2023/08/05 12:20:16;;;;;;;2.50;2.30;;;32.80;39.20;;;;;;5005687;28;20449;-81
2023/08/05 12:22:44;;;;;;;4.07;2.50;;;33.80;38.50;;;;;;5006658;28;20449;-81
2023/08/05 12:25:13;;;;;;;2.23;2.03;;;34.30;36.90;;;;;;5005239;28;20516;-81
2023/08/05 12:27:41;;;;;;;4.40;2.30;;;34.50;36.20;;;;;;4998091;28;20495;-81
2023/08/05 12:30:10;;;;;;;3.30;2.13;;;34.70;35.80;;;;;;5005530;28;20620;-81
2023/08/05 12:32:39;;;;;;;2.50;2.30;;;34.60;35.80;;;;;;5004672;28;20449;-82
2023/08/05 12:35:09;;;;;;;4.63;2.43;;;34.60;35.90;;;;;;5005046;28;20508;-81
2023/08/05 12:37:39;;;;;;;2.10;2.00;;;34.70;35.80;;;;;;5005535;28;20457;-81
2023/08/05 12:40:09;;;;;;;2.80;2.03;;;34.70;36.50;;;;;;5006508;28;20464;-81
2023/08/05 12:42:37;;;;;;;4.07;2.80;;;34.70;36.20;;;;;;5007594;28;20441;-81
2023/08/05 12:45:07;;;;;;;2.13;2.03;;;34.70;36.10;;;;;;5007705;28;20465;-82
2023/08/05 12:47:39;;;;;;;3.03;1.97;;;35.20;37.20;;;;;;5008882;28;20445;-82
2023/08/05 12:50:08;;;;;;;2.00;1.90;;;35.90;37.30;;;;;;5006622;28;20461;-82
2023/08/05 12:52:36;;;;;;;1.90;1.80;;;37.00;35.70;;;;;;5010139;28;20520;-82
2023/08/05 12:55:06;;;;;;;1.93;1.73;;;37.90;34.50;;;;;;5009922;28;20501;-82
2023/08/05 12:57:34;;;;;;;1.77;1.67;;;38.20;32.40;;;;;;5009733;28;20476;-81
2023/08/05 13:00:03;;;;;;;3.03;2.00;;;37.80;32.70;;;;;;5009040;28;20456;-80
2023/08/05 13:02:31;;;;;;;2.07;1.97;;;37.50;33.40;;;;;;5008755;28;20437;-81
2023/08/05 13:05:02;;;;;;;5.07;2.53;;;37.60;35.00;;;;;;5008865;28;20532;-81
2023/08/05 13:07:31;;;;;;;2.80;2.30;;;39.00;33.50;;;;;;5009921;28;20436;-81
2023/08/05 13:09:59;;;;;;;1.80;1.70;;;39.90;31.50;;;;;;5009395;28;20441;-81